新東京国際空港の過去48時間の天気

新東京国際空港 (Tokyo/New Tokyo Intl)

現在時刻: 10/24 12:11 JST (10/24 03:11 UTC) 以下の時間は現地時間です。

過去48時間のMETAR気象情報
時間 風向 風速(m/s) 視程 気温(℃) 湿度(%) 気圧(hPa) 天気現象
24 11:30 東北東 7 10km以上 21 60 1023
24 11:00 東北東 8 10km以上 21 64 1023
24 10:30 東北東 7 10km以上 20 68 1023
24 10:00 東北東 6 10km以上 21 69 1024
24 09:30 北東 6 10km以上 20 68 1024
24 09:00 北東 6 10km以上 20 68 1024
24 08:30 北東 4 10km以上 20 73 1024
24 08:00 北北東 4 10km以上 19 78 1024
24 07:30 北東 4 10km以上 18 83 1023
24 07:00 北北東 4 10km以上 17 88 1023
24 06:30 北北東 4 10km以上 17 83 1022
24 06:00 北北東 4 10km以上 16 94 1022
24 05:30 北北東 3 10km以上 16 88 1022
24 05:00 3 10km以上 16 88 1022
24 04:30 北北東 3 10km以上 16 88 1022
24 04:00 北北東 3 10km以上 16 94 1021
24 03:30 北北東 3 10km以上 16 94 1022
24 03:00 北北東 3 10km以上 16 94 1021
24 02:30 北北東 3 10km以上 17 88 1021
24 02:00 北北東 3 10km以上 17 83 1022
24 01:00 北北東 3 10km以上 17 83 1021
24 00:30 北北東 3 10km以上 17 88 1021
24 00:00 北東 3 10km以上 17 88 1021
23 23:30 北東 2 10km以上 18 83 1021
23 23:00 東北東 2 10km以上 18 83 1021
23 22:30 東北東 3 10km以上 18 83 1021
23 22:00 東南東 2 10km以上 16 94 1021
23 21:30 2 10km以上 16 88 1021
23 21:00 東北東 3 10km以上 17 83 1021
23 20:30 東北東 3 10km以上 17 83 1021
23 20:00 3 10km以上 17 83 1021
23 19:30 3 10km以上 17 83 1020
23 19:00 4 10km以上 18 77 1020
23 18:30 3 10km以上 17 83 1020
23 18:00 2 10km以上 18 77 1019
23 17:30 3 10km以上 18 77 1019
23 17:00 4 10km以上 19 73 1018
23 16:30 4 10km以上 19 68 1018
23 16:00 6 10km以上 20 68 1017
23 15:30 東北東 5 10km以上 21 60 1017
23 15:00 東北東 4 10km以上 21 60 1016
23 14:30 東南東 3 10km以上 23 53 1016
23 14:00 北北東 3 10km以上 23 57 1016
23 13:30 北東 3 10km以上 23 57 1015
23 13:00 3 10km以上 23 57 1015
23 12:30 不定 2 10km以上 22 60 1015
23 12:00 北北西 3 10km以上 22 60 1015
23 11:30 北北西 4 10km以上 21 64 1016
23 11:00 北北西 3 10km以上 22 65 1016
23 10:30 北北西 4 10km以上 21 64 1016
23 10:00 北北西 4 10km以上 21 69 1016
23 09:30 北西 3 10km以上 20 68 1016
23 09:00 北北西 3 10km以上 19 68 1016
23 08:30 北北西 4 10km以上 18 73 1016
23 08:00 北西 2 10km以上 17 77 1015
23 07:30 北西 3 10km以上 17 77 1015
23 07:00 北北西 3 10km以上 15 88 1014
23 06:30 北西 2 10km以上 13 94 1014
23 06:00 北西 2 10km以上 13 94 1014
23 05:30 西北西 3 10km以上 14 88 1013
23 05:00 西 2 10km以上 13 94 1013
23 04:30 北西 3 10km以上 14 94 1012
23 04:00 北西 2 10km以上 13 94 1012
23 03:30 北西 3 10km以上 15 82 1012
RJAA 240230Z 06014KT 9999 FEW030 BKN/// 21/13 Q1023 BECMG 04014KT RMK 1CU030 A3021
RJAA 240200Z 07015KT 020V090 9999 FEW030 SCT060 BKN/// 21/14 Q1023 BECMG 04014KT
RJAA 240130Z 06013KT 9999 FEW030 BKN060 BKN/// 20/14 Q1023 BECMG 04014KT
RJAA 240100Z 06011KT 020V090 9999 FEW020 SCT060 BKN/// 21/15 Q1024 BECMG 04012KT RMK 1CU020 3SC060 A3025 MOD TURB OBS AT 0040Z 10NM N SWAMP FL150 IN DES B772 AZA784
RJAA 240030Z 05012KT 360V080 9999 FEW020 BKN190 BKN/// 20/14 Q1024 NOSIG RMK 1CU020 5AC190 A3024
RJAA 240000Z 05012KT 9999 FEW020 BKN190 BKN/// 20/14 Q1024 NOSIG
RJAA 232330Z 04008KT 9999 FEW020 BKN190 BKN/// 20/15 Q1024 NOSIG RMK 1CU020 5AC190 A3025
RJAA 232300Z 03008KT 9999 FEW020 BKN190 19/15 Q1024 NOSIG RMK 1CU020 7AC190 A3024
RJAA 232230Z 04007KT 9999 FEW020 BKN180 18/15 Q1023 NOSIG RMK 1CU020 7AC180 A3023
RJAA 232200Z 03008KT 9999 FEW020 BKN180 17/15 Q1023 NOSIG RMK 1CU020 7AC180 A3021
RJAA 232130Z 03008KT 9999 FEW020 BKN/// 17/14 Q1022 NOSIG RMK 1CU020 A3020
RJAA 232100Z 02007KT 9999 FEW020 SCT060 BKN/// 16/15 Q1022 NOSIG RMK 1CU020 3SC060 A3019
RJAA 232030Z 02005KT 9999 FEW020 BKN060 BKN/// 16/14 Q1022 NOSIG
RJAA 232000Z 01005KT 9999 FEW020 BKN/// 16/14 Q1022 NOSIG RMK 1CU020 A3019
RJAA 231930Z 03005KT 9999 FEW020 SCT060 BKN/// 16/14 Q1022 NOSIG RMK 1CU020 3SC060 A3018
RJAA 231900Z 02006KT 9999 FEW020 SCT060 BKN/// 16/15 Q1021 NOSIG
RJAA 231830Z 02005KT 9999 FEW020 BKN060 BKN/// 16/15 Q1022 NOSIG
RJAA 231800Z 02006KT 9999 FEW020 SCT060 BKN/// 16/15 Q1021 NOSIG
RJAA 231730Z 02005KT 9999 FEW020 BKN060 17/15 Q1021 NOSIG RMK 1CU020 7SC060 A3018
RJAA 231700Z 03005KT 9999 FEW020 SCT060 BKN/// 17/14 Q1022 NOSIG
RJAA 231600Z 02005KT 9999 FEW020 SCT070 BKN/// 17/14 Q1021 NOSIG RMK 1CU020 4AC070 A3017
RJAA 231530Z 03005KT 9999 FEW020 BKN070 BKN/// 17/15 Q1021 NOSIG
RJAA 231500Z 04005KT 9999 FEW020 BKN070 17/15 Q1021 NOSIG RMK 1CU020 7AC070 A3017
RJAA 231430Z 05004KT 020V090 9999 FEW020 BKN070 18/15 Q1021 NOSIG RMK 1CU020 7AC070 A3017
RJAA 231400Z 07004KT 9999 FEW020 BKN060 BKN070 18/15 Q1021 NOSIG RMK 1CU020 5SC060 7AC070 A3017
RJAA 231330Z 07005KT 9999 FEW020 BKN060 BKN070 18/15 Q1021 BECMG 04005KT RMK 1CU020 5SC060 7AC070 A3017
RJAA 231300Z 11003KT 9999 FEW020 SCT060 BKN070 16/15 Q1021 BECMG 04005KT RMK 1CU020 4SC060 7AC070 A3017
RJAA 231230Z 10003KT 9999 FEW025 BKN060 BKN/// 16/14 Q1021 BECMG 04005KT
RJAA 231200Z 07005KT 9999 FEW025 BKN/// 17/14 Q1021 NOSIG RMK 1CU025 A3016
RJAA 231130Z 07005KT 9999 FEW025 BKN/// 17/14 Q1021 NOSIG RMK 1CU025 A3015
RJAA 231100Z 08005KT 9999 FEW025 BKN/// 17/14 Q1021 NOSIG
RJAA 231030Z 09005KT 9999 FEW025 BKN/// 17/14 Q1020 NOSIG RMK 1CU025 A3013
RJAA 231000Z 08007KT 9999 FEW030 BKN/// 18/14 Q1020 NOSIG RMK 1CU030 A3013
RJAA 230930Z 10005KT 9999 FEW030 SCT050 BKN/// 17/14 Q1020 NOSIG RMK 1CU030 3SC050 A3012
RJAA 230900Z 10004KT 9999 FEW030 BKN/// 18/14 Q1019 NOSIG RMK 1CU030 A3011
RJAA 230830Z 08006KT 9999 FEW030 SCT050 BKN/// 18/14 Q1019 NOSIG RMK 1CU030 3SC050 A3009
RJAA 230800Z 08007KT 030V110 9999 FEW030 SCT050 BKN/// 19/14 Q1018 NOSIG RMK 1CU030 3SC050 A3008
RJAA 230730Z 09008KT 040V120 9999 FEW030 BKN/// 19/13 Q1018 NOSIG RMK 1CU030 A3007
RJAA 230700Z 08011KT 040V110 9999 FEW030 BKN/// 20/14 Q1017 NOSIG RMK 1CU030 A3005
RJAA 230630Z 07010KT 030V100 9999 FEW030 BKN/// 21/13 Q1017 NOSIG
RJAA 230600Z 06008KT 9999 FEW030 BKN/// 21/13 Q1016 BECMG TL0630 08008KT RMK 1CU030 A3003
RJAA 230530Z 12006KT 080V160 9999 FEW040 BKN/// 23/13 Q1016 NOSIG
RJAA 230500Z 03006KT 9999 FEW040 SCT/// 23/14 Q1016 BECMG TL0600 08008KT RMK 2CU040 A3000
RJAA 230430Z 05006KT 010V110 9999 FEW015 SCT040 23/14 Q1015 BECMG 08008KT
RJAA 230400Z 01005KT 330V080 9999 FEW035 23/14 Q1015 BECMG 08008KT RMK 2CU035 A2999
RJAA 230330Z VRB03KT 9999 FEW030 22/14 Q1015 BECMG 08008KT RMK 2CU030 A2999
RJAA 230300Z 33006KT 290V360 9999 FEW030 22/14 Q1015 NOSIG RMK 1CU030 A2999
RJAA 230230Z 34007KT 300V010 9999 FEW030 21/14 Q1016 NOSIG RMK 1CU030 A3000
RJAA 230200Z 33006KT 260V010 9999 FEW030 22/15 Q1016 NOSIG RMK 1CU030 A3000
RJAA 230130Z 33008KT 270V360 9999 FEW030 21/14 Q1016 NOSIG RMK 1CU030 A3000
RJAA 230100Z 33007KT 9999 FEW030 21/15 Q1016 NOSIG RMK 1CU030 A3000
RJAA 230030Z 32005KT 280V350 9999 FEW030 20/14 Q1016 NOSIG RMK 1CU030 A3000
RJAA 230000Z 33006KT 9999 FEW020 19/13 Q1016 NOSIG RMK 1CU020 A3001
RJAA 222330Z 33007KT 9999 FEW020 18/13 Q1016 NOSIG RMK 1CU020 A3000
RJAA 222300Z 32004KT 290V010 9999 FEW020 17/13 Q1015 NOSIG RMK 1CU020 A2999
RJAA 222230Z 32006KT 9999 FEW020 17/13 Q1015 NOSIG RMK 1CU020 A2997
RJAA 222200Z 33005KT 9999 FEW020 15/13 Q1014 NOSIG RMK 1CU020 A2996
RJAA 222130Z 32003KT 9999 FEW020 13/12 Q1014 NOSIG RMK 1CU020 A2995
RJAA 222100Z 31004KT 9999 FEW020 13/12 Q1014 NOSIG RMK 1CU020 A2994
RJAA 222030Z 30006KT 9999 FEW020 14/12 Q1013 NOSIG RMK 1CU020 A2993
RJAA 222000Z 27003KT 230V310 9999 FEW020 13/12 Q1013 NOSIG RMK 1CU020 A2993
RJAA 221930Z 31005KT 9999 FEW020 14/13 Q1012 NOSIG RMK 1CU020 A2990
RJAA 221900Z 32004KT 9999 FEW020 13/12 Q1012 NOSIG RMK 1CU020 A2990
RJAA 221830Z 31005KT 9999 FEW020 15/12 Q1012 NOSIG RMK 1CU020 A2990